Time;durP1;ratioP1;P1;durP2;ratioP2;P2;SDS_P1;SDS_P2;PMS_P1;PMS_P2;Temp;Humidity;BMP_temperature;BMP_pressure;BME280_temperature;BME280_humidity;BME280_pressure;Samples;Min_cycle;Max_cycle;Signal;HPM_P1;HPM_P2
2021/11/05 00:02:09;;;;;;;;;;;4.40;99.90;;;;;;5053366;28;20265;-77
2021/11/05 00:04:34;;;;;;;;;;;4.30;99.90;;;;;;5071348;28;19923;-75
2021/11/05 00:07:00;;;;;;;;;;;4.30;99.90;;;;;;5071490;28;19915;-75
2021/11/05 00:09:26;;;;;;;;;;;4.30;99.90;;;;;;5062567;28;19908;-75
2021/11/05 00:11:51;;;;;;;;;;;4.20;99.90;;;;;;5072981;28;19947;-75
2021/11/05 00:14:17;;;;;;;;;;;4.20;99.90;;;;;;5091552;28;19934;-77
2021/11/05 00:16:42;;;;;;;;;;;4.10;99.90;;;;;;5073327;28;19912;-75
2021/11/05 00:19:08;;;;;;;;;;;4.10;99.90;;;;;;5091422;28;19916;-76
2021/11/05 00:21:34;;;;;;;;;;;4.00;99.90;;;;;;5091154;28;19915;-76
2021/11/05 00:23:59;;;;;;;;;;;3.90;99.90;;;;;;5091354;28;19914;-77
2021/11/05 00:26:25;;;;;;;;;;;3.90;99.90;;;;;;5091394;28;19912;-75
2021/11/05 00:28:50;;;;;;;;;;;3.90;99.90;;;;;;5091448;28;20336;-75
2021/11/05 00:31:16;;;;;;;;;;;3.80;99.90;;;;;;5090846;28;19908;-75
2021/11/05 00:33:41;;;;;;;;;;;3.90;99.90;;;;;;5091105;28;20263;-78
2021/11/05 00:36:13;;;;;;;;;;;3.80;99.90;;;;;;5091760;28;19979;-75
2021/11/05 00:38:40;;;;;;;;;;;3.80;99.90;;;;;;5088087;28;19912;-75
2021/11/05 00:41:05;;;;;;;;;;;3.90;99.90;;;;;;5070408;28;20355;-77
2021/11/05 00:43:31;;;;;;;;;;;3.80;99.90;;;;;;5070955;28;19919;-75
2021/11/05 00:45:56;;;;;;;;;;;3.70;99.90;;;;;;5073851;28;19915;-75
2021/11/05 00:48:22;;;;;;;;;;;3.70;99.90;;;;;;5075160;28;19922;-76
2021/11/05 00:50:47;;;;;;;;;;;3.70;99.90;;;;;;5074676;28;19932;-75
2021/11/05 00:53:13;;;;;;;;;;;3.70;99.90;;;;;;5075005;28;19965;-75
2021/11/05 00:55:38;;;;;;;;;;;3.60;99.90;;;;;;5075049;28;19912;-76
2021/11/05 00:58:04;;;;;;;;;;;3.70;99.90;;;;;;5075406;28;19954;-79
2021/11/05 01:00:32;;;;;;;;;;;3.80;99.90;;;;;;5074391;28;20307;-75
2021/11/05 01:02:58;;;;;;;;;;;3.70;99.90;;;;;;5074904;28;19991;-75
2021/11/05 01:05:23;;;;;;;;;;;3.80;99.90;;;;;;5074837;28;20402;-75
2021/11/05 01:07:49;;;;;;;;;;;3.80;99.90;;;;;;5056755;28;19912;-76
2021/11/05 01:10:14;;;;;;;;;;;3.90;99.90;;;;;;5090433;28;19916;-78
2021/11/05 01:12:40;;;;;;;;;;;3.90;99.90;;;;;;5094793;28;20003;-75
2021/11/05 01:15:07;;;;;;;;;;;4.00;99.90;;;;;;5094820;28;19955;-75
2021/11/05 01:17:34;;;;;;;;;;;4.00;99.90;;;;;;5094665;28;19908;-75
2021/11/05 01:19:59;;;;;;;;;;;4.00;99.90;;;;;;5094323;28;19915;-75
2021/11/05 01:22:25;;;;;;;;;;;4.00;99.90;;;;;;5076440;28;19908;-78
2021/11/05 01:24:50;;;;;;;;;;;4.00;99.90;;;;;;5094723;28;19915;-75
2021/11/05 01:27:16;;;;;;;;;;;4.00;99.90;;;;;;5076535;28;19915;-75
2021/11/05 01:29:41;;;;;;;;;;;4.00;99.90;;;;;;5093954;28;19931;-75
2021/11/05 01:32:07;;;;;;;;;;;4.00;99.90;;;;;;5076211;28;19956;-78
2021/11/05 01:34:33;;;;;;;;;;;3.90;99.90;;;;;;5094485;28;20286;-77
2021/11/05 01:36:58;;;;;;;;;;;3.90;99.90;;;;;;5094515;28;19912;-75
2021/11/05 01:39:24;;;;;;;;;;;3.90;99.90;;;;;;5084935;28;19937;-75
2021/11/05 01:41:50;;;;;;;;;;;3.90;99.90;;;;;;5073483;28;19909;-75
2021/11/05 01:44:15;;;;;;;;;;;3.90;99.90;;;;;;5073957;28;19908;-76
2021/11/05 01:46:42;;;;;;;;;;;3.80;99.90;;;;;;5073920;28;19958;-75
2021/11/05 01:49:11;;;;;;;;;;;3.80;99.90;;;;;;5074002;28;19908;-75
2021/11/05 01:51:37;;;;;;;;;;;3.80;99.90;;;;;;5055534;28;19916;-75
2021/11/05 01:54:08;;;;;;;;;;;3.80;99.90;;;;;;5073801;28;19912;-75
2021/11/05 01:56:35;;;;;;;;;;;3.80;99.90;;;;;;5073756;28;20001;-75
2021/11/05 01:59:00;;;;;;;;;;;3.80;99.90;;;;;;5073704;28;20264;-75
2021/11/05 02:01:26;;;;;;;;;;;3.80;99.90;;;;;;5073166;28;20041;-75
2021/11/05 02:03:51;;;;;;;;;;;3.80;99.90;;;;;;5073625;28;20378;-79
2021/11/05 02:06:19;;;;;;;;;;;3.80;99.90;;;;;;5073671;28;19912;-75
2021/11/05 02:08:45;;;;;;;;;;;3.90;99.90;;;;;;5059442;28;20325;-75
2021/11/05 02:11:11;;;;;;;;;;;3.90;99.90;;;;;;5074920;28;19916;-75
2021/11/05 02:13:37;;;;;;;;;;;4.00;99.90;;;;;;5093497;28;19957;-75
2021/11/05 02:16:03;;;;;;;;;;;4.00;99.90;;;;;;5075752;28;19961;-75
2021/11/05 02:18:30;;;;;;;;;;;4.00;99.90;;;;;;5093053;28;20217;-76
2021/11/05 02:20:56;;;;;;;;;;;4.10;99.90;;;;;;5093124;28;19908;-79
2021/11/05 02:23:23;;;;;;;;;;;4.10;99.90;;;;;;5093571;28;19908;-75
2021/11/05 02:25:49;;;;;;;;;;;4.20;99.90;;;;;;5093390;28;19919;-75
2021/11/05 02:28:14;;;;;;;;;;;4.20;99.90;;;;;;5093401;28;19908;-79
2021/11/05 02:30:40;;;;;;;;;;;4.20;99.90;;;;;;5092956;28;20298;-74
2021/11/05 02:33:06;;;;;;;;;;;4.20;99.90;;;;;;5093402;28;20285;-74
2021/11/05 02:35:32;;;;;;;;;;;4.20;99.90;;;;;;5093420;28;20293;-74
2021/11/05 02:37:57;;;;;;;;;;;4.30;99.90;;;;;;5093180;28;19912;-74
2021/11/05 02:40:23;;;;;;;;;;;4.20;99.90;;;;;;5075682;28;19916;-75
2021/11/05 02:42:48;;;;;;;;;;;4.20;99.90;;;;;;5092999;28;19923;-77
2021/11/05 02:45:14;;;;;;;;;;;4.20;99.90;;;;;;5093121;28;19961;-74
2021/11/05 02:47:40;;;;;;;;;;;4.20;99.90;;;;;;5093035;28;19912;-75
2021/11/05 02:50:13;;;;;;;;;;;4.20;99.90;;;;;;5092713;28;20011;-75
2021/11/05 02:52:39;;;;;;;;;;;4.20;99.90;;;;;;5092830;28;19916;-77
2021/11/05 02:55:06;;;;;;;;;;;4.20;99.90;;;;;;5092881;28;20279;-75
2021/11/05 02:57:31;;;;;;;;;;;4.20;99.90;;;;;;5092891;28;19912;-76
2021/11/05 02:59:57;;;;;;;;;;;4.10;99.90;;;;;;5092359;28;19908;-75
2021/11/05 03:02:25;;;;;;;;;;;4.10;99.90;;;;;;5074607;28;19908;-75
2021/11/05 03:04:52;;;;;;;;;;;4.10;99.90;;;;;;5074601;28;19908;-75
2021/11/05 03:07:17;;;;;;;;;;;4.10;99.90;;;;;;5092156;28;20286;-78
2021/11/05 03:09:43;;;;;;;;;;;4.10;99.90;;;;;;5079560;28;19919;-75
2021/11/05 03:12:09;;;;;;;;;;;4.10;99.90;;;;;;5072251;28;19967;-75
2021/11/05 03:14:34;;;;;;;;;;;4.10;99.90;;;;;;5072270;28;19912;-75
2021/11/05 03:17:00;;;;;;;;;;;4.10;99.90;;;;;;5072200;28;19909;-75
2021/11/05 03:19:26;;;;;;;;;;;4.10;99.90;;;;;;5072152;28;19909;-78
2021/11/05 03:21:51;;;;;;;;;;;4.10;99.90;;;;;;5071716;28;20004;-77
2021/11/05 03:24:17;;;;;;;;;;;4.10;99.90;;;;;;5072057;28;19990;-75
2021/11/05 03:26:43;;;;;;;;;;;4.20;99.90;;;;;;5072154;28;19915;-75
2021/11/05 03:29:09;;;;;;;;;;;4.20;99.90;;;;;;5072112;28;19978;-74
2021/11/05 03:31:35;;;;;;;;;;;4.20;99.90;;;;;;5071776;28;19913;-75
2021/11/05 03:34:01;;;;;;;;;;;4.20;99.90;;;;;;5071837;28;19919;-76
2021/11/05 03:36:27;;;;;;;;;;;4.20;99.90;;;;;;5053991;28;19908;-75
2021/11/05 03:38:53;;;;;;;;;;;4.20;99.90;;;;;;5074630;28;19914;-78
2021/11/05 03:41:18;;;;;;;;;;;4.20;99.90;;;;;;5071164;28;19909;-77
2021/11/05 03:43:44;;;;;;;;;;;4.20;99.90;;;;;;5071663;28;19961;-75
2021/11/05 03:46:09;;;;;;;;;;;4.20;99.90;;;;;;5071785;28;19916;-75
2021/11/05 03:48:38;;;;;;;;;;;4.30;99.90;;;;;;5071663;28;19920;-75
2021/11/05 03:51:04;;;;;;;;;;;4.20;99.90;;;;;;5071166;28;19916;-74
2021/11/05 03:53:29;;;;;;;;;;;4.20;99.90;;;;;;5071445;28;20371;-75
2021/11/05 03:55:55;;;;;;;;;;;4.20;99.90;;;;;;5071726;28;20391;-75
2021/11/05 03:58:20;;;;;;;;;;;4.20;99.90;;;;;;5071450;28;19909;-79
2021/11/05 04:00:46;;;;;;;;;;;4.20;99.90;;;;;;5070957;28;20303;-75
2021/11/05 04:03:11;;;;;;;;;;;4.20;99.90;;;;;;5071387;28;19909;-75
2021/11/05 04:05:37;;;;;;;;;;;4.20;99.90;;;;;;5071327;28;19951;-77
2021/11/05 04:08:03;;;;;;;;;;;4.10;99.90;;;;;;5053050;28;20355;-79
2021/11/05 04:10:28;;;;;;;;;;;4.00;99.90;;;;;;5088950;28;19968;-75
2021/11/05 04:12:54;;;;;;;;;;;4.00;99.90;;;;;;5091373;28;19912;-75
2021/11/05 04:15:19;;;;;;;;;;;4.00;99.90;;;;;;5091441;28;20366;-75
2021/11/05 04:17:45;;;;;;;;;;;4.00;99.90;;;;;;5073207;28;19908;-78
2021/11/05 04:20:11;;;;;;;;;;;4.00;99.90;;;;;;5090486;28;19916;-74
2021/11/05 04:22:38;;;;;;;;;;;3.90;99.90;;;;;;5091737;28;19915;-75
2021/11/05 04:25:03;;;;;;;;;;;3.90;99.90;;;;;;5091332;28;19978;-76
2021/11/05 04:27:29;;;;;;;;;;;4.00;99.90;;;;;;5073246;28;19920;-77
2021/11/05 04:29:54;;;;;;;;;;;4.10;99.90;;;;;;5090850;28;19908;-75
2021/11/05 04:32:20;;;;;;;;;;;4.00;99.90;;;;;;5091371;28;20370;-74
2021/11/05 04:34:45;;;;;;;;;;;4.20;99.90;;;;;;5091387;28;19951;-76
2021/11/05 04:37:11;;;;;;;;;;;4.10;99.90;;;;;;5091130;28;20019;-76
2021/11/05 04:39:36;;;;;;;;;;;4.10;99.90;;;;;;5079594;28;20351;-75
2021/11/05 04:42:02;;;;;;;;;;;4.10;99.90;;;;;;5052421;28;19916;-76
2021/11/05 04:44:29;;;;;;;;;;;4.00;99.90;;;;;;5052946;28;19915;-75
2021/11/05 04:46:54;;;;;;;;;;;4.10;99.90;;;;;;5071072;28;19908;-75
2021/11/05 04:49:22;;;;;;;;;;;4.10;99.90;;;;;;5071206;28;19916;-75
2021/11/05 04:51:48;;;;;;;;;;;4.10;99.90;;;;;;5071255;28;20003;-74
2021/11/05 04:54:14;;;;;;;;;;;4.10;99.90;;;;;;5071030;28;20011;-74
2021/11/05 04:56:39;;;;;;;;;;;4.10;99.90;;;;;;5052975;28;20411;-75
2021/11/05 04:59:05;;;;;;;;;;;4.00;99.90;;;;;;5053004;28;19913;-75
2021/11/05 05:01:30;;;;;;;;;;;4.00;99.90;;;;;;5070434;28;20058;-75
2021/11/05 05:03:56;;;;;;;;;;;4.10;99.90;;;;;;5052777;28;20046;-74
2021/11/05 05:06:21;;;;;;;;;;;4.10;99.90;;;;;;5070795;28;19909;-76
2021/11/05 05:08:47;;;;;;;;;;;4.10;99.90;;;;;;5057159;28;20430;-75
2021/11/05 05:11:13;;;;;;;;;;;4.10;99.90;;;;;;5090052;28;19916;-74
2021/11/05 05:13:39;;;;;;;;;;;4.10;99.90;;;;;;5090952;28;19974;-74
2021/11/05 05:16:05;;;;;;;;;;;4.10;99.90;;;;;;5072771;28;20370;-75
2021/11/05 05:18:30;;;;;;;;;;;4.10;99.90;;;;;;5090917;28;19908;-73
2021/11/05 05:20:56;;;;;;;;;;;4.10;99.90;;;;;;5090274;28;20340;-75
2021/11/05 05:23:22;;;;;;;;;;;4.20;99.90;;;;;;5091111;28;20423;-75
2021/11/05 05:25:47;;;;;;;;;;;4.20;99.90;;;;;;5090862;28;19915;-75
2021/11/05 05:28:13;;;;;;;;;;;4.30;99.90;;;;;;5091033;28;19915;-74
2021/11/05 05:30:38;;;;;;;;;;;4.30;99.90;;;;;;5091227;28;19912;-75
2021/11/05 05:33:04;;;;;;;;;;;4.30;99.90;;;;;;5076560;28;19912;-75
2021/11/05 05:35:30;;;;;;;;;;;4.30;99.90;;;;;;5094713;28;20267;-74
2021/11/05 05:37:56;;;;;;;;;;;4.30;99.90;;;;;;5094584;28;19976;-75
2021/11/05 05:40:22;;;;;;;;;;;4.30;99.90;;;;;;5093779;28;19908;-74
2021/11/05 05:42:48;;;;;;;;;;;4.30;99.90;;;;;;5094890;28;20386;-75
2021/11/05 05:45:14;;;;;;;;;;;4.20;99.90;;;;;;5076343;28;19908;-75
2021/11/05 05:47:40;;;;;;;;;;;4.10;99.90;;;;;;5076330;28;19915;-74
2021/11/05 05:50:07;;;;;;;;;;;4.10;99.90;;;;;;5093968;28;20002;-75
2021/11/05 05:52:32;;;;;;;;;;;4.10;99.90;;;;;;5076204;28;19915;-75
2021/11/05 05:54:58;;;;;;;;;;;4.10;99.90;;;;;;5094283;28;20330;-75
2021/11/05 05:57:23;;;;;;;;;;;4.10;99.90;;;;;;5076219;28;19990;-74
2021/11/05 05:59:49;;;;;;;;;;;4.10;99.90;;;;;;5093861;28;20329;-75
2021/11/05 06:02:15;;;;;;;;;;;4.20;99.90;;;;;;5095025;28;19915;-75
2021/11/05 06:04:40;;;;;;;;;;;4.20;99.90;;;;;;5094647;28;19944;-75
2021/11/05 06:07:06;;;;;;;;;;;4.30;99.90;;;;;;5076752;28;19912;-73
2021/11/05 06:09:31;;;;;;;;;;;4.30;99.90;;;;;;5065144;28;19908;-75
2021/11/05 06:11:57;;;;;;;;;;;4.30;99.90;;;;;;5073932;28;20011;-75
2021/11/05 06:14:23;;;;;;;;;;;4.30;99.90;;;;;;5073969;28;19966;-75
2021/11/05 06:16:48;;;;;;;;;;;4.30;99.90;;;;;;5074317;28;19908;-74
2021/11/05 06:19:14;;;;;;;;;;;4.30;99.90;;;;;;5073916;28;19986;-73
2021/11/05 06:21:40;;;;;;;;;;;4.20;99.90;;;;;;5073732;28;19915;-75
2021/11/05 06:24:05;;;;;;;;;;;4.10;99.90;;;;;;5056123;28;20363;-75
2021/11/05 06:26:31;;;;;;;;;;;4.10;99.90;;;;;;5074251;28;19918;-74
2021/11/05 06:29:01;;;;;;;;;;;4.10;99.90;;;;;;5074048;28;19916;-74
2021/11/05 06:31:27;;;;;;;;;;;4.20;99.90;;;;;;5055567;28;19909;-75
2021/11/05 06:33:52;;;;;;;;;;;4.30;99.90;;;;;;5073649;28;19927;-75
2021/11/05 06:36:20;;;;;;;;;;;4.30;99.90;;;;;;5055972;28;20565;-75
2021/11/05 06:38:45;;;;;;;;;;;4.40;99.90;;;;;;5077622;28;19908;-75
2021/11/05 06:41:13;;;;;;;;;;;4.40;99.90;;;;;;5077101;28;20003;-74
2021/11/05 06:43:39;;;;;;;;;;;4.40;99.90;;;;;;5054930;28;19920;-74
2021/11/05 06:46:04;;;;;;;;;;;4.50;99.90;;;;;;5073435;28;20294;-75
2021/11/05 06:48:30;;;;;;;;;;;4.50;99.90;;;;;;5073483;28;19908;-75
2021/11/05 06:50:56;;;;;;;;;;;4.50;99.90;;;;;;5073373;28;19908;-75
2021/11/05 06:53:22;;;;;;;;;;;4.60;99.90;;;;;;5073299;28;19912;-75
2021/11/05 06:55:47;;;;;;;;;;;4.60;99.90;;;;;;5073339;28;19908;-75
2021/11/05 06:58:13;;;;;;;;;;;4.70;99.90;;;;;;5056626;28;19915;-74
2021/11/05 07:00:39;;;;;;;;;;;4.70;99.90;;;;;;5056568;28;19916;-75
2021/11/05 07:03:05;;;;;;;;;;;4.80;99.90;;;;;;5073558;28;19908;-75
2021/11/05 07:05:30;;;;;;;;;;;4.80;99.90;;;;;;5073322;28;19920;-75
2021/11/05 07:07:56;;;;;;;;;;;4.80;99.90;;;;;;5072937;28;19908;-75
2021/11/05 07:10:22;;;;;;;;;;;4.80;99.90;;;;;;5071523;28;19923;-74
2021/11/05 07:12:50;;;;;;;;;;;4.80;99.90;;;;;;5093272;28;19919;-73
2021/11/05 07:15:16;;;;;;;;;;;4.80;99.90;;;;;;5075296;28;19908;-75
2021/11/05 07:17:42;;;;;;;;;;;4.90;99.90;;;;;;5093290;28;19961;-75
2021/11/05 07:20:07;;;;;;;;;;;4.90;99.90;;;;;;5074571;28;19915;-75
2021/11/05 07:22:36;;;;;;;;;;;4.90;99.90;;;;;;5093147;28;20517;-75
2021/11/05 07:25:01;;;;;;;;;;;4.90;99.90;;;;;;5092967;28;19908;-75
2021/11/05 07:27:27;;;;;;;;;;;5.00;99.90;;;;;;5093063;28;20354;-75
2021/11/05 07:29:53;;;;;;;;;;;5.00;99.90;;;;;;5074252;28;19915;-75
2021/11/05 07:32:18;;;;;;;;;;;5.00;99.90;;;;;;5074487;28;19909;-75
2021/11/05 07:34:44;;;;;;;;;;;5.10;99.90;;;;;;5074622;28;20388;-75
2021/11/05 07:37:18;;;;;;;;;;;5.10;99.90;;;;;;5074583;28;19973;-75
2021/11/05 07:39:43;;;;;;;;;;;5.10;99.90;;;;;;5061970;28;19909;-75
2021/11/05 07:42:09;;;;;;;;;;;5.10;99.90;;;;;;5072444;28;19935;-75
2021/11/05 07:44:37;;;;;;;;;;;5.20;99.90;;;;;;5072336;28;19958;-75
2021/11/05 07:47:03;;;;;;;;;;;5.20;99.90;;;;;;5051677;28;20015;-75
2021/11/05 07:49:29;;;;;;;;;;;5.30;99.90;;;;;;5070891;28;19912;-75
2021/11/05 07:51:55;;;;;;;;;;;5.30;99.90;;;;;;5070801;28;19923;-75
2021/11/05 07:54:21;;;;;;;;;;;5.40;99.90;;;;;;5076234;28;20423;-74
2021/11/05 07:56:48;;;;;;;;;;;5.50;99.90;;;;;;5079093;28;19953;-75
2021/11/05 07:59:13;;;;;;;;;;;5.50;99.90;;;;;;5053824;28;19909;-75
2021/11/05 08:01:39;;;;;;;;;;;5.60;99.90;;;;;;5071227;28;19912;-76
2021/11/05 08:04:04;;;;;;;;;;;5.60;99.90;;;;;;5053978;28;19915;-74
2021/11/05 08:06:30;;;;;;;;;;;5.60;99.90;;;;;;5071001;28;19908;-75
2021/11/05 08:08:55;;;;;;;;;;;5.50;99.90;;;;;;5076021;28;19912;-75
2021/11/05 08:11:22;;;;;;;;;;;5.60;99.90;;;;;;5090205;28;19916;-74
2021/11/05 08:13:47;;;;;;;;;;;5.80;99.90;;;;;;5086857;28;19957;-75
2021/11/05 08:16:13;;;;;;;;;;;6.00;99.90;;;;;;5069183;28;19916;-74
2021/11/05 08:18:39;;;;;;;;;;;6.10;99.90;;;;;;5071844;28;19916;-75
2021/11/05 08:21:04;;;;;;;;;;;6.10;99.90;;;;;;5076119;28;19909;-75
2021/11/05 08:23:30;;;;;;;;;;;6.20;99.90;;;;;;5073980;28;19908;-75
2021/11/05 08:25:56;;;;;;;;;;;6.30;99.90;;;;;;5088467;28;20003;-75
2021/11/05 08:28:21;;;;;;;;;;;6.30;99.90;;;;;;5077215;28;19960;-74
2021/11/05 08:30:48;;;;;;;;;;;6.30;99.90;;;;;;5071595;28;20298;-76
2021/11/05 08:33:14;;;;;;;;;;;6.40;99.90;;;;;;5090120;28;19919;-74
2021/11/05 08:35:44;;;;;;;;;;;6.60;99.90;;;;;;5084684;28;19912;-73
2021/11/05 08:38:15;;;;;;;;;;;6.70;99.90;;;;;;5069812;28;20024;-76
2021/11/05 08:40:44;;;;;;;;;;;6.60;99.90;;;;;;5067832;28;19987;-76
2021/11/05 08:43:10;;;;;;;;;;;6.60;99.90;;;;;;5069814;28;19963;-74
2021/11/05 08:45:35;;;;;;;;;;;6.60;99.90;;;;;;5074718;28;19940;-75
2021/11/05 08:48:03;;;;;;;;;;;6.70;99.90;;;;;;5085887;28;20397;-75
2021/11/05 08:50:29;;;;;;;;;;;6.60;99.90;;;;;;5089410;28;20387;-75
2021/11/05 08:52:54;;;;;;;;;;;6.90;99.90;;;;;;5052685;28;19917;-75
2021/11/05 08:55:20;;;;;;;;;;;7.00;99.90;;;;;;5071680;28;20335;-76
2021/11/05 08:57:45;;;;;;;;;;;7.10;99.90;;;;;;5072790;28;20415;-75
2021/11/05 09:00:16;;;;;;;;;;;7.20;99.90;;;;;;5068008;28;19957;-76
2021/11/05 09:02:42;;;;;;;;;;;7.30;99.90;;;;;;5081564;28;19912;-75
2021/11/05 09:05:08;;;;;;;;;;;7.40;99.90;;;;;;5090082;28;20316;-75
2021/11/05 09:07:33;;;;;;;;;;;7.40;99.90;;;;;;5085568;28;19916;-75
2021/11/05 09:09:59;;;;;;;;;;;7.40;99.90;;;;;;5064042;28;19912;-75
2021/11/05 09:12:24;;;;;;;;;;;7.30;99.90;;;;;;5055161;28;20354;-74
2021/11/05 09:14:50;;;;;;;;;;;7.30;99.90;;;;;;5089888;28;19908;-76
2021/11/05 09:17:16;;;;;;;;;;;7.20;99.90;;;;;;5093211;28;19915;-75
2021/11/05 09:19:41;;;;;;;;;;;7.00;99.90;;;;;;5079440;28;19909;-75
2021/11/05 09:22:07;;;;;;;;;;;6.90;99.90;;;;;;5072856;28;19912;-75
2021/11/05 09:24:34;;;;;;;;;;;6.90;99.90;;;;;;5077009;28;19943;-76
2021/11/05 09:26:59;;;;;;;;;;;6.90;99.90;;;;;;5080792;28;20301;-75
2021/11/05 09:29:25;;;;;;;;;;;7.00;99.90;;;;;;5090931;28;19908;-74
2021/11/05 09:31:50;;;;;;;;;;;7.30;99.90;;;;;;5075888;28;19908;-75
2021/11/05 09:34:17;;;;;;;;;;;7.70;99.90;;;;;;5081397;28;20378;-76
2021/11/05 09:36:43;;;;;;;;;;;8.00;99.90;;;;;;5063699;28;19908;-76
2021/11/05 09:39:08;;;;;;;;;;;8.30;99.90;;;;;;5081308;28;20347;-76
2021/11/05 09:41:33;;;;;;;;;;;8.90;99.90;;;;;;5057026;28;19912;-76
2021/11/05 09:44:00;;;;;;;;;;;8.90;99.90;;;;;;5076575;28;19948;-73
2021/11/05 09:46:25;;;;;;;;;;;8.80;99.90;;;;;;5070686;28;19913;-74
2021/11/05 09:48:51;;;;;;;;;;;8.80;99.90;;;;;;5074341;28;20404;-75
2021/11/05 09:51:16;;;;;;;;;;;9.10;99.90;;;;;;5074339;28;19911;-76
2021/11/05 09:53:42;;;;;;;;;;;9.20;99.90;;;;;;5074665;28;19965;-75
2021/11/05 09:56:10;;;;;;;;;;;9.10;99.90;;;;;;5074125;28;19909;-74
2021/11/05 09:58:37;;;;;;;;;;;8.90;99.90;;;;;;5074686;28;19919;-76
2021/11/05 10:01:03;;;;;;;;;;;9.10;99.90;;;;;;5074235;28;19990;-76
2021/11/05 10:03:30;;;;;;;;;;;9.00;99.90;;;;;;5064766;28;20401;-76
2021/11/05 10:05:56;;;;;;;;;;;9.10;99.90;;;;;;5072373;28;20359;-76
2021/11/05 10:08:31;;;;;;;;;;;10.00;99.90;;;;;;5083494;28;19916;-76
2021/11/05 10:10:58;;;;;;;;;;;10.00;99.90;;;;;;5069985;28;19981;-76
2021/11/05 10:13:25;;;;;;;;;;;10.30;99.90;;;;;;5088754;28;19916;-76
2021/11/05 10:15:53;;;;;;;;;;;10.40;99.90;;;;;;5079580;28;20452;-75
2021/11/05 10:18:29;;;;;;;;;;;10.00;99.90;;;;;;5088385;28;19908;-76
2021/11/05 10:21:09;;;;;;;;;;;9.60;99.90;;;;;;5076090;28;19909;-76
2021/11/05 10:23:36;;;;;;;;;;;9.60;99.90;;;;;;5073110;28;20465;-76
2021/11/05 10:26:03;;;;;;;;;;;9.40;99.90;;;;;;5072713;28;20420;-76
2021/11/05 10:28:28;;;;;;;;;;;8.90;99.90;;;;;;5088989;28;19959;-76
2021/11/05 10:30:57;;;;;;;;;;;9.00;99.90;;;;;;5095027;28;20366;-76
2021/11/05 10:33:29;;;;;;;;;;;9.40;99.90;;;;;;5092649;28;19958;-75
2021/11/05 10:35:55;;;;;;;;;;;9.40;99.90;;;;;;5069951;28;20393;-76
2021/11/05 10:38:20;;;;;;;;;;;9.20;99.90;;;;;;5076114;28;19908;-76
2021/11/05 10:40:50;;;;;;;;;;;8.50;99.90;;;;;;5092124;28;19982;-75
2021/11/05 10:43:36;;;;;;;;;;;8.20;99.90;;;;;;5073494;28;20290;-76
2021/11/05 10:46:03;;;;;;;;;;;8.70;99.90;;;;;;5073892;28;20367;-76
2021/11/05 10:48:30;;;;;;;;;;;8.80;99.90;;;;;;5069015;28;19909;-76
2021/11/05 10:51:02;;;;;;;;;;;8.80;99.90;;;;;;5090008;28;20287;-76
2021/11/05 10:53:35;;;;;;;;;;;8.70;99.90;;;;;;5087362;28;20363;-76
2021/11/05 10:56:05;;;;;;;;;;;8.90;99.90;;;;;;5065575;28;19908;-75
2021/11/05 10:58:33;;;;;;;;;;;9.30;99.90;;;;;;5085732;28;19914;-75
2021/11/05 11:01:01;;;;;;;;;;;9.60;99.90;;;;;;5077856;28;19915;-76
2021/11/05 11:03:31;;;;;;;;;;;9.40;99.90;;;;;;5097702;28;19909;-76
2021/11/05 11:05:59;;;;;;;;;;;9.20;99.90;;;;;;5093983;28;19916;-76
2021/11/05 11:08:29;;;;;;;;;;;9.30;99.90;;;;;;5088611;28;19908;-76
2021/11/05 11:10:56;;;;;;;;;;;9.60;99.90;;;;;;5072115;28;19938;-76
2021/11/05 11:13:35;;;;;;;;;;;9.80;99.90;;;;;;5073906;28;19916;-76
2021/11/05 11:16:03;;;;;;;;;;;9.90;99.90;;;;;;5072784;28;20003;-76
2021/11/05 11:18:29;;;;;;;;;;;10.30;99.90;;;;;;5054522;28;20002;-75
2021/11/05 11:20:54;;;;;;;;;;;10.10;99.90;;;;;;5072886;28;19963;-76
2021/11/05 11:23:20;;;;;;;;;;;9.90;99.90;;;;;;5054998;28;19909;-75
2021/11/05 11:25:46;;;;;;;;;;;10.00;99.90;;;;;;5072989;28;19969;-76
2021/11/05 11:28:11;;;;;;;;;;;9.50;99.90;;;;;;5072624;28;20172;-76
2021/11/05 11:30:37;;;;;;;;;;;9.00;99.90;;;;;;5071904;28;19909;-76
2021/11/05 11:33:03;;;;;;;;;;;8.80;99.90;;;;;;5072511;28;19954;-76
2021/11/05 11:35:29;;;;;;;;;;;8.70;99.90;;;;;;5054695;28;20389;-76
2021/11/05 11:37:55;;;;;;;;;;;8.60;99.90;;;;;;5072056;28;19930;-73
2021/11/05 11:40:20;;;;;;;;;;;8.40;99.90;;;;;;5054251;28;20247;-75
2021/11/05 11:42:46;;;;;;;;;;;8.30;99.90;;;;;;5092651;28;19909;-76
2021/11/05 11:45:13;;;;;;;;;;;8.10;99.90;;;;;;5083479;28;19915;-76
2021/11/05 11:47:42;;;;;;;;;;;7.90;99.90;;;;;;5073805;28;20133;-76
2021/11/05 11:50:23;;;;;;;;;;;7.90;99.90;;;;;;5091629;28;20350;-76
2021/11/05 11:53:05;;;;;;;;;;;7.90;99.90;;;;;;5073517;28;19912;-75
2021/11/05 11:55:32;;;;;;;;;;;8.00;99.90;;;;;;5074048;28;20130;-76
2021/11/05 11:58:07;;;;;;;;;;;8.00;99.90;;;;;;5091982;28;19930;-76
2021/11/05 12:00:33;;;;;;;;;;;8.00;99.90;;;;;;5073774;28;19912;-76
2021/11/05 12:03:02;;;;;;;;;;;8.00;99.90;;;;;;5091834;28;19908;-76
2021/11/05 12:05:31;;;;;;;;;;;8.10;99.90;;;;;;5073247;28;19916;-76
2021/11/05 12:08:14;;;;;;;;;;;8.10;99.90;;;;;;5091660;28;19908;-76
2021/11/05 12:10:41;;;;;;;;;;;8.20;99.90;;;;;;5070267;28;19939;-76
2021/11/05 12:13:25;;;;;;;;;;;8.30;99.90;;;;;;5071574;28;19912;-76
2021/11/05 12:16:09;;;;;;;;;;;8.50;99.90;;;;;;5053104;28;19920;-76
2021/11/05 12:18:53;;;;;;;;;;;8.50;99.90;;;;;;5053196;28;19914;-76
2021/11/05 12:21:19;;;;;;;;;;;8.50;99.90;;;;;;5070660;28;20004;-76
2021/11/05 12:23:44;;;;;;;;;;;8.70;99.90;;;;;;5071067;28;19974;-76
2021/11/05 12:26:10;;;;;;;;;;;8.90;99.90;;;;;;5052983;28;19913;-75
2021/11/05 12:28:42;;;;;;;;;;;8.90;99.90;;;;;;5071127;28;19909;-76
2021/11/05 12:31:26;;;;;;;;;;;9.10;99.90;;;;;;5070525;28;20333;-76
2021/11/05 12:33:52;;;;;;;;;;;9.20;99.90;;;;;;5072516;28;20298;-74
2021/11/05 12:36:18;;;;;;;;;;;9.20;99.90;;;;;;5070944;28;20368;-76
2021/11/05 12:39:00;;;;;;;;;;;9.30;99.90;;;;;;5074514;28;19915;-74
2021/11/05 12:41:25;;;;;;;;;;;9.40;99.90;;;;;;5089917;28;19915;-76
2021/11/05 12:43:51;;;;;;;;;;;9.30;99.90;;;;;;5071930;28;19908;-76
2021/11/05 12:46:17;;;;;;;;;;;9.30;99.90;;;;;;5088974;28;19919;-75
2021/11/05 12:48:45;;;;;;;;;;;8.90;99.90;;;;;;5091060;28;20251;-76
2021/11/05 12:51:11;;;;;;;;;;;8.60;99.90;;;;;;5072355;28;19912;-76
2021/11/05 12:53:40;;;;;;;;;;;8.20;99.90;;;;;;5091202;28;19913;-75
2021/11/05 12:56:06;;;;;;;;;;;8.10;99.90;;;;;;5072807;28;19908;-76
2021/11/05 12:58:35;;;;;;;;;;;8.10;99.90;;;;;;5072937;28;20023;-76
2021/11/05 13:01:01;;;;;;;;;;;8.00;99.90;;;;;;5070265;28;19908;-75
2021/11/05 13:03:27;;;;;;;;;;;7.90;99.90;;;;;;5090958;28;20349;-75
2021/11/05 13:05:54;;;;;;;;;;;8.00;99.90;;;;;;5090913;28;19948;-75
2021/11/05 13:08:23;;;;;;;;;;;7.90;99.90;;;;;;5090343;28;19912;-75
2021/11/05 13:10:49;;;;;;;;;;;8.00;99.90;;;;;;5069915;28;20067;-75
2021/11/05 13:13:15;;;;;;;;;;;8.00;99.90;;;;;;5052549;28;19927;-74
2021/11/05 13:15:42;;;;;;;;;;;8.00;99.90;;;;;;5070575;28;19908;-75
2021/11/05 13:18:08;;;;;;;;;;;8.10;99.90;;;;;;5070920;28;19916;-75
2021/11/05 13:20:41;;;;;;;;;;;8.30;99.90;;;;;;5070080;28;19938;-75
2021/11/05 13:23:07;;;;;;;;;;;8.40;99.90;;;;;;5052572;28;19934;-75
2021/11/05 13:25:37;;;;;;;;;;;8.50;99.90;;;;;;5052599;28;20002;-75
2021/11/05 13:28:15;;;;;;;;;;;8.60;99.90;;;;;;5070395;28;19913;-76
2021/11/05 13:30:49;;;;;;;;;;;8.60;99.90;;;;;;5051994;28;19919;-74
2021/11/05 13:33:16;;;;;;;;;;;8.50;99.90;;;;;;5070330;28;20004;-75
2021/11/05 13:35:51;;;;;;;;;;;8.40;99.90;;;;;;5070428;28;19915;-74
2021/11/05 13:38:18;;;;;;;;;;;8.30;99.90;;;;;;5070540;28;19912;-76
2021/11/05 13:40:53;;;;;;;;;;;8.10;99.90;;;;;;5051763;28;19916;-75
2021/11/05 13:43:20;;;;;;;;;;;8.00;99.90;;;;;;5070353;28;19912;-76
2021/11/05 13:45:47;;;;;;;;;;;8.00;99.90;;;;;;5084795;28;19908;-74
2021/11/05 13:48:17;;;;;;;;;;;7.90;99.90;;;;;;5090259;28;19934;-75
2021/11/05 13:50:43;;;;;;;;;;;7.90;99.90;;;;;;5090087;28;19908;-76
2021/11/05 13:53:09;;;;;;;;;;;8.00;99.90;;;;;;5093434;28;20445;-76
2021/11/05 13:55:36;;;;;;;;;;;8.00;99.90;;;;;;5093804;28;19954;-75
2021/11/05 13:58:02;;;;;;;;;;;7.90;99.90;;;;;;5093962;28;20420;-76
2021/11/05 14:00:28;;;;;;;;;;;7.90;99.90;;;;;;5093492;28;20453;-75
2021/11/05 14:02:55;;;;;;;;;;;7.90;99.90;;;;;;5093856;28;19998;-74
2021/11/05 14:05:21;;;;;;;;;;;7.80;99.90;;;;;;5093883;28;19915;-75
2021/11/05 14:08:00;;;;;;;;;;;7.80;99.90;;;;;;5093827;28;19912;-75
2021/11/05 14:10:26;;;;;;;;;;;7.80;99.90;;;;;;5090564;28;20409;-76
2021/11/05 14:12:58;;;;;;;;;;;7.80;99.90;;;;;;5075396;28;19951;-75
2021/11/05 14:15:25;;;;;;;;;;;7.70;99.90;;;;;;5075660;28;20351;-76
2021/11/05 14:17:51;;;;;;;;;;;7.70;99.90;;;;;;5075312;28;19991;-75
2021/11/05 14:20:26;;;;;;;;;;;7.70;99.90;;;;;;5074950;28;20022;-75
2021/11/05 14:22:51;;;;;;;;;;;7.70;99.90;;;;;;5093411;28;19908;-75
2021/11/05 14:25:18;;;;;;;;;;;7.70;99.90;;;;;;5075224;28;19923;-75
2021/11/05 14:27:44;;;;;;;;;;;7.60;99.90;;;;;;5093389;28;20000;-75